createdAt,value
2023-03-23T15:58:15.936Z,2.70
2023-03-23T16:01:10.944Z,2.90
2023-03-23T16:04:18.380Z,2.80
2023-03-23T16:07:06.500Z,3.10
2023-03-23T16:09:52.714Z,3.20
2023-03-23T16:12:39.112Z,3.50
2023-03-23T16:15:26.059Z,3.00
2023-03-23T16:18:21.562Z,3.10
2023-03-23T16:21:08.206Z,3.10
2023-03-23T16:23:55.790Z,3.30
2023-03-23T16:26:41.905Z,3.30
2023-03-23T16:29:46.877Z,2.60
2023-03-23T16:35:22.013Z,2.00
2023-03-23T16:38:14.313Z,2.00
2023-03-23T16:41:03.010Z,1.90
2023-03-23T16:43:50.211Z,1.70
2023-03-23T16:46:37.001Z,1.70
2023-03-23T16:49:23.393Z,1.50
2023-03-23T16:52:11.691Z,1.80
2023-03-23T16:54:58.266Z,2.10
2023-03-23T16:57:45.065Z,2.10
2023-03-23T17:00:32.534Z,1.90
2023-03-23T17:03:21.038Z,2.10
2023-03-23T17:06:09.673Z,2.20
2023-03-23T17:08:56.002Z,2.30
2023-03-23T17:11:43.090Z,1.80
2023-03-23T17:14:30.373Z,2.00
2023-03-23T17:17:17.146Z,2.80
2023-03-23T17:20:05.841Z,2.80
2023-03-23T17:22:53.826Z,2.60
2023-03-23T17:25:40.725Z,2.30
2023-03-23T17:28:26.943Z,2.60
2023-03-23T17:31:13.414Z,2.80
2023-03-23T17:34:00.186Z,2.60
2023-03-23T17:36:46.473Z,2.30
2023-03-23T17:39:42.868Z,2.50
2023-03-23T17:42:30.497Z,3.40
2023-03-23T17:45:17.223Z,2.80
2023-03-23T17:48:06.941Z,2.60
2023-03-23T17:50:58.548Z,2.50
2023-03-23T17:53:45.525Z,2.90
2023-03-23T17:56:32.089Z,3.20
2023-03-23T17:59:19.356Z,3.20
2023-03-23T18:02:06.737Z,3.00
2023-03-23T18:04:58.956Z,2.90
2023-03-23T18:07:45.670Z,2.70
2023-03-23T18:10:36.137Z,3.50
2023-03-23T18:13:25.625Z,3.40
2023-03-23T18:16:12.108Z,4.20
2023-03-23T18:18:58.608Z,3.80
2023-03-23T18:21:46.086Z,3.40
2023-03-23T18:24:32.549Z,2.80
2023-03-23T18:27:18.927Z,2.40
2023-03-23T18:30:07.346Z,3.20
2023-03-23T18:32:53.665Z,2.70
2023-03-23T18:35:40.359Z,2.60
2023-03-23T18:38:28.402Z,3.80
2023-03-23T18:41:16.188Z,6.20
2023-03-23T18:44:02.743Z,3.70
2023-03-23T18:46:49.378Z,3.60
2023-03-23T18:49:36.250Z,3.40
2023-03-23T18:52:25.862Z,3.70
2023-03-23T18:55:12.555Z,3.80
2023-03-23T18:57:59.687Z,4.10
2023-03-23T19:00:47.270Z,3.70
2023-03-23T19:03:35.626Z,3.70
2023-03-23T19:06:26.770Z,4.40
2023-03-23T19:09:18.169Z,3.50
2023-03-23T19:12:05.044Z,3.50
2023-03-23T19:14:51.896Z,3.20
2023-03-23T19:17:38.295Z,4.30
2023-03-23T19:20:54.854Z,4.10
2023-03-23T19:23:33.579Z,4.40
2023-03-23T19:26:35.816Z,3.60
2023-03-23T19:29:26.784Z,3.60
2023-03-23T19:32:14.237Z,3.30
2023-03-23T19:35:00.645Z,4.40
2023-03-23T19:37:47.617Z,4.60
2023-03-23T19:40:49.991Z,3.90
2023-03-23T19:43:38.763Z,3.90
2023-03-23T19:46:28.311Z,4.50
2023-03-23T19:49:16.907Z,4.90
2023-03-23T19:52:07.149Z,4.60
2023-03-23T19:54:57.517Z,4.60
2023-03-23T19:57:44.684Z,4.10
2023-03-23T20:00:34.146Z,3.60
2023-03-23T20:03:21.326Z,3.90
2023-03-23T20:06:14.315Z,4.10
2023-03-23T20:09:01.843Z,4.70
2023-03-23T20:11:50.134Z,4.20
2023-03-23T20:14:37.684Z,4.00
2023-03-23T20:17:25.525Z,5.60
2023-03-23T20:20:14.272Z,4.40
2023-03-23T20:23:01.699Z,4.70
2023-03-23T20:25:50.235Z,3.80
2023-03-23T20:28:36.970Z,3.40
2023-03-23T20:31:27.895Z,3.50
2023-03-23T20:34:27.960Z,3.80
2023-03-23T20:37:20.254Z,3.30
2023-03-23T20:40:16.112Z,3.20
2023-03-23T20:43:04.737Z,5.50
2023-03-23T20:45:53.595Z,3.70
2023-03-23T20:48:42.553Z,3.20
2023-03-23T20:51:29.915Z,3.40
2023-03-23T20:54:19.235Z,3.50
2023-03-23T20:57:07.676Z,2.90
2023-03-23T20:59:55.145Z,3.30
2023-03-23T21:02:42.006Z,3.50
2023-03-23T21:05:29.002Z,3.90
2023-03-23T21:08:17.668Z,3.50
2023-03-23T21:11:08.058Z,3.40
2023-03-23T21:13:54.694Z,2.90
2023-03-23T21:16:43.656Z,2.60
2023-03-23T21:19:31.417Z,3.30
2023-03-23T21:22:18.669Z,3.60
2023-03-23T21:25:06.343Z,3.10
2023-03-23T21:27:53.314Z,3.00
2023-03-23T21:30:44.854Z,3.10
2023-03-23T21:33:33.177Z,2.60
2023-03-23T21:36:20.449Z,3.20
2023-03-23T21:39:07.385Z,3.00
2023-03-23T21:41:53.931Z,3.30
2023-03-23T21:44:42.180Z,3.80
2023-03-23T21:47:30.301Z,3.40
2023-03-23T21:50:17.949Z,3.60
2023-03-23T21:53:05.290Z,2.90
2023-03-23T21:55:52.330Z,3.20
2023-03-23T21:58:40.046Z,3.00
2023-03-23T22:01:29.485Z,2.70
2023-03-23T22:04:16.494Z,3.10
2023-03-23T22:07:02.764Z,3.00
2023-03-23T22:09:50.372Z,2.90
2023-03-23T22:12:37.115Z,3.40
2023-03-23T22:15:27.202Z,3.30
2023-03-23T22:18:16.047Z,3.60
2023-03-23T22:21:03.936Z,3.20
2023-03-23T22:23:51.190Z,2.90
2023-03-23T22:26:38.061Z,2.80
2023-03-23T22:29:24.594Z,2.70
2023-03-23T22:32:11.329Z,2.80
2023-03-23T22:34:57.895Z,2.80
2023-03-23T22:37:44.356Z,4.90
2023-03-23T22:40:31.577Z,3.00
2023-03-23T22:43:18.129Z,3.30
2023-03-23T22:46:05.326Z,2.70
2023-03-23T22:48:52.907Z,2.50
2023-03-23T22:51:40.362Z,2.80
2023-03-23T22:54:27.218Z,3.00
2023-03-23T22:57:14.160Z,2.80
2023-03-23T23:00:13.549Z,2.70
2023-03-23T23:02:59.740Z,3.20
2023-03-23T23:05:49.899Z,3.00
2023-03-23T23:08:36.844Z,3.20
2023-03-23T23:11:25.288Z,2.70
2023-03-23T23:14:12.153Z,3.00
2023-03-23T23:16:58.906Z,2.90
2023-03-23T23:19:46.104Z,2.60
2023-03-23T23:22:33.409Z,2.20
2023-03-23T23:25:22.494Z,2.70
2023-03-23T23:28:09.685Z,3.00
2023-03-23T23:30:57.627Z,2.90
2023-03-23T23:33:44.341Z,3.10
2023-03-23T23:36:31.770Z,2.80
2023-03-23T23:39:18.494Z,2.60
2023-03-23T23:42:05.309Z,2.70
2023-03-23T23:44:51.747Z,3.10
2023-03-23T23:47:39.277Z,3.00
2023-03-23T23:50:27.144Z,3.10
2023-03-23T23:53:13.986Z,2.90
2023-03-23T23:56:03.530Z,2.80
2023-03-23T23:58:50.731Z,2.80
